EJU53KW LFRS-LEPA
Flight info
| Callsign | EJU53KW |
|---|---|
| Flight time | N/A |
| Altitude | 39000 |
| Route | LUGEN UM184 TUPAR DCT CNA DCT SECHE DCT AGN DCT TOU DCT LOMRA DCT ROCAN DCT IBRAP DCT LUKEV DCT LORES |
| Aircraft | A319/M-SDE3FGHIRWY/LB1 |
Departure
| Time | 2026-05-03 21:11 |
|---|---|
| Airport | Nantes Atlantique Airport (LFRS) |
Arrival
| Time | N/A |
|---|---|
| Airport | Palma de Mallorca Airport (LEPA) |
| Time | Latitude | Longitude | Altitude | Speed | Heading |
|---|---|---|---|---|---|
| 2026-05-03 20:32 | 47.15466 | -1.60221 | 93 ft | 0 kts | 28° |
| 2026-05-03 21:04 | 47.15456 | -1.60229 | 94 ft | 3 kts | 28° |
| 2026-05-03 21:04 | 47.15439 | -1.60243 | 94 ft | 3 kts | 22° |
| 2026-05-03 21:04 | 47.15420 | -1.60248 | 96 ft | 3 kts | 306° |
| 2026-05-03 21:05 | 47.15411 | -1.60225 | 96 ft | 1 kts | 298° |
| 2026-05-03 21:07 | 47.15423 | -1.60260 | 96 ft | 7 kts | 297° |
| 2026-05-03 21:07 | 47.15458 | -1.60341 | 96 ft | 12 kts | 311° |
| 2026-05-03 21:07 | 47.15501 | -1.60394 | 93 ft | 5 kts | 321° |
| 2026-05-03 21:07 | 47.15540 | -1.60450 | 92 ft | 11 kts | 306° |
| 2026-05-03 21:08 | 47.15595 | -1.60553 | 90 ft | 14 kts | 320° |
| 2026-05-03 21:08 | 47.15694 | -1.60520 | 90 ft | 17 kts | 26° |
| 2026-05-03 21:08 | 47.15813 | -1.60428 | 90 ft | 21 kts | 28° |
| 2026-05-03 21:08 | 47.15948 | -1.60325 | 90 ft | 18 kts | 26° |
| 2026-05-03 21:09 | 47.16072 | -1.60233 | 90 ft | 22 kts | 27° |
| 2026-05-03 21:09 | 47.16218 | -1.60121 | 90 ft | 25 kts | 27° |
| 2026-05-03 21:09 | 47.16353 | -1.60061 | 89 ft | 13 kts | 342° |
| 2026-05-03 21:09 | 47.16438 | -1.60150 | 87 ft | 18 kts | 276° |
| 2026-05-03 21:10 | 47.16371 | -1.60272 | 89 ft | 13 kts | 206° |
| 2026-05-03 21:10 | 47.16265 | -1.60350 | 88 ft | 29 kts | 207° |
| 2026-05-03 21:10 | 47.15779 | -1.60718 | 85 ft | 123 kts | 207° |
| 2026-05-03 21:10 | 47.14821 | -1.61452 | 322 ft | 173 kts | 207° |
| 2026-05-03 21:11 | 47.13711 | -1.62269 | 1165 ft | 183 kts | 207° |
| 2026-05-03 21:11 | 47.12499 | -1.63059 | 1974 ft | 203 kts | 196° |
| 2026-05-03 21:11 | 47.11024 | -1.62855 | 2539 ft | 233 kts | 155° |
| 2026-05-03 21:11 | 47.09693 | -1.61334 | 3354 ft | 257 kts | 137° |
| 2026-05-03 21:12 | 47.08386 | -1.59430 | 4695 ft | 264 kts | 135° |
| 2026-05-03 21:12 | 47.07104 | -1.57469 | 6054 ft | 268 kts | 135° |
| 2026-05-03 21:12 | 47.05806 | -1.55472 | 7345 ft | 273 kts | 136° |
| 2026-05-03 21:12 | 47.04484 | -1.53453 | 8606 ft | 278 kts | 136° |
| 2026-05-03 21:13 | 47.03106 | -1.51433 | 9859 ft | 282 kts | 142° |
| 2026-05-03 21:13 | 47.01437 | -1.49804 | 10670 ft | 300 kts | 152° |
| 2026-05-03 21:13 | 46.99596 | -1.48198 | 11247 ft | 325 kts | 152° |
| 2026-05-03 21:13 | 46.97568 | -1.46464 | 11748 ft | 350 kts | 152° |
| 2026-05-03 21:14 | 46.95395 | -1.44613 | 12190 ft | 373 kts | 152° |
| 2026-05-03 21:14 | 46.93117 | -1.42663 | 12964 ft | 384 kts | 152° |
| 2026-05-03 21:14 | 46.90774 | -1.40643 | 13889 ft | 390 kts | 152° |
| 2026-05-03 21:14 | 46.88421 | -1.38608 | 14730 ft | 395 kts | 152° |
| 2026-05-03 21:15 | 46.86043 | -1.36552 | 15587 ft | 399 kts | 152° |
| 2026-05-03 21:15 | 46.83642 | -1.34477 | 16424 ft | 403 kts | 152° |
| 2026-05-03 21:15 | 46.81217 | -1.32386 | 17227 ft | 407 kts | 152° |
| 2026-05-03 21:15 | 46.78763 | -1.30276 | 18017 ft | 412 kts | 153° |
| 2026-05-03 21:16 | 46.76280 | -1.28146 | 18715 ft | 416 kts | 153° |
| 2026-05-03 21:16 | 46.73777 | -1.25999 | 19384 ft | 419 kts | 153° |
| 2026-05-03 21:16 | 46.71259 | -1.23841 | 20041 ft | 422 kts | 153° |
| 2026-05-03 21:16 | 46.68718 | -1.21664 | 20700 ft | 425 kts | 153° |
| 2026-05-03 21:17 | 46.66196 | -1.19511 | 21331 ft | 428 kts | 154° |
| 2026-05-03 21:17 | 46.64455 | -1.18025 | 21756 ft | 429 kts | 154° |
| 2026-05-03 21:17 | 46.60991 | -1.15073 | 22595 ft | 433 kts | 154° |
| 2026-05-03 21:17 | 46.58418 | -1.12887 | 23196 ft | 436 kts | 154° |
| 2026-05-03 21:18 | 46.55789 | -1.10659 | 23739 ft | 438 kts | 154° |
| 2026-05-03 21:18 | 46.53148 | -1.08417 | 24238 ft | 440 kts | 155° |
| 2026-05-03 21:18 | 46.50504 | -1.06170 | 24735 ft | 442 kts | 155° |
| 2026-05-03 21:18 | 46.47850 | -1.03920 | 25230 ft | 443 kts | 155° |
| 2026-05-03 21:19 | 46.45183 | -1.01660 | 25713 ft | 444 kts | 155° |
| 2026-05-03 21:19 | 46.42525 | -0.99408 | 26311 ft | 442 kts | 155° |
| 2026-05-03 21:19 | 46.39882 | -0.97171 | 27027 ft | 438 kts | 155° |
| 2026-05-03 21:19 | 46.37267 | -0.94959 | 27767 ft | 434 kts | 155° |
| 2026-05-03 21:20 | 46.34672 | -0.92768 | 28539 ft | 430 kts | 156° |
| 2026-05-03 21:20 | 46.32103 | -0.90604 | 29318 ft | 426 kts | 156° |
| 2026-05-03 21:20 | 46.29551 | -0.88461 | 30104 ft | 422 kts | 156° |
| 2026-05-03 21:20 | 46.27025 | -0.86342 | 30743 ft | 420 kts | 156° |
| 2026-05-03 21:21 | 46.24500 | -0.84230 | 31316 ft | 419 kts | 156° |
| 2026-05-03 21:21 | 46.21973 | -0.82116 | 31866 ft | 420 kts | 156° |
| 2026-05-03 21:21 | 46.19445 | -0.80003 | 32422 ft | 420 kts | 157° |
| 2026-05-03 21:21 | 46.16911 | -0.77887 | 32985 ft | 421 kts | 157° |
| 2026-05-03 21:22 | 46.14373 | -0.75768 | 33544 ft | 422 kts | 157° |
| 2026-05-03 21:22 | 46.11834 | -0.73644 | 34099 ft | 422 kts | 157° |
| 2026-05-03 21:22 | 46.09291 | -0.71516 | 34580 ft | 423 kts | 157° |
| 2026-05-03 21:22 | 46.06742 | -0.69390 | 35035 ft | 424 kts | 156° |
| 2026-05-03 21:23 | 46.04182 | -0.67261 | 35497 ft | 426 kts | 156° |
| 2026-05-03 21:23 | 46.01606 | -0.65124 | 35949 ft | 428 kts | 156° |
| 2026-05-03 21:23 | 45.99029 | -0.62987 | 36380 ft | 429 kts | 156° |
| 2026-05-03 21:23 | 45.96438 | -0.60835 | 36808 ft | 430 kts | 156° |
| 2026-05-03 21:24 | 45.93844 | -0.58678 | 37237 ft | 431 kts | 156° |
| 2026-05-03 21:24 | 45.91242 | -0.56524 | 37655 ft | 433 kts | 155° |
| 2026-05-03 21:24 | 45.88626 | -0.54365 | 38075 ft | 434 kts | 155° |
| 2026-05-03 21:24 | 45.86011 | -0.52210 | 38486 ft | 434 kts | 155° |
| 2026-05-03 21:25 | 45.83387 | -0.50050 | 38834 ft | 436 kts | 155° |
| 2026-05-03 21:25 | 45.80751 | -0.47876 | 38933 ft | 438 kts | 155° |
| 2026-05-03 21:25 | 45.75451 | -0.43509 | 38969 ft | 440 kts | 155° |
| 2026-05-03 21:26 | 45.70133 | -0.39149 | 38971 ft | 440 kts | 155° |
| 2026-05-03 21:26 | 45.64849 | -0.34827 | 38972 ft | 441 kts | 155° |
| 2026-05-03 21:27 | 45.59528 | -0.30477 | 38972 ft | 441 kts | 155° |
| 2026-05-03 21:27 | 45.54202 | -0.26127 | 38972 ft | 441 kts | 155° |
| 2026-05-03 21:28 | 45.48871 | -0.21781 | 38977 ft | 441 kts | 155° |
| 2026-05-03 21:28 | 45.43533 | -0.17450 | 38972 ft | 442 kts | 156° |
| 2026-05-03 21:29 | 45.38188 | -0.13128 | 38978 ft | 442 kts | 156° |
| 2026-05-03 21:29 | 45.32838 | -0.08820 | 38980 ft | 442 kts | 156° |
| 2026-05-03 21:30 | 45.27487 | -0.04508 | 38976 ft | 442 kts | 156° |
| 2026-05-03 21:30 | 45.22137 | -0.00195 | 38978 ft | 443 kts | 156° |
| 2026-05-03 21:31 | 45.16777 | 0.04118 | 38976 ft | 443 kts | 156° |
| 2026-05-03 21:31 | 45.11407 | 0.08410 | 38975 ft | 443 kts | 156° |
| 2026-05-03 21:32 | 45.06033 | 0.12696 | 38974 ft | 444 kts | 156° |
| 2026-05-03 21:32 | 45.00654 | 0.16994 | 38974 ft | 444 kts | 156° |
| 2026-05-03 21:33 | 44.95269 | 0.21292 | 38975 ft | 445 kts | 156° |
| 2026-05-03 21:33 | 44.89867 | 0.25578 | 38980 ft | 445 kts | 156° |
| 2026-05-03 21:34 | 44.84460 | 0.29857 | 38982 ft | 446 kts | 156° |
| 2026-05-03 21:34 | 44.79047 | 0.34135 | 38986 ft | 446 kts | 156° |
| 2026-05-03 21:35 | 44.73623 | 0.38414 | 38988 ft | 447 kts | 156° |
| 2026-05-03 21:35 | 44.68200 | 0.42697 | 38989 ft | 447 kts | 156° |
| 2026-05-03 21:36 | 44.62764 | 0.46970 | 38987 ft | 448 kts | 156° |
| 2026-05-03 21:36 | 44.57352 | 0.51197 | 38979 ft | 448 kts | 156° |
| 2026-05-03 21:37 | 44.51905 | 0.55462 | 38976 ft | 449 kts | 156° |
| 2026-05-03 21:37 | 44.46456 | 0.59722 | 38967 ft | 449 kts | 156° |
| 2026-05-03 21:38 | 44.40991 | 0.63973 | 38961 ft | 450 kts | 156° |
| 2026-05-03 21:38 | 44.35518 | 0.68221 | 38958 ft | 450 kts | 156° |
| 2026-05-03 21:39 | 44.30035 | 0.72470 | 38956 ft | 451 kts | 156° |
| 2026-05-03 21:39 | 44.24546 | 0.76727 | 38957 ft | 452 kts | 156° |
| 2026-05-03 21:40 | 44.19049 | 0.80988 | 38959 ft | 452 kts | 156° |
| 2026-05-03 21:40 | 44.13537 | 0.85230 | 38968 ft | 453 kts | 156° |
| 2026-05-03 21:41 | 44.12344 | 0.86145 | 38962 ft | 0 kts | 156° |
| 2026-05-03 21:42 | 43.83725 | 1.03417 | 40343 ft | 0 kts | 156° |